Time;durP1;ratioP1;P1;durP2;ratioP2;P2;SDS_P1;SDS_P2;PMS_P1;PMS_P2;Temp;Humidity;BMP_temperature;BMP_pressure;BME280_temperature;BME280_humidity;BME280_pressure;Samples;Min_cycle;Max_cycle;Signal;HPM_P1;HPM_P2
2023/11/27 00:01:10;;;;;;;4.93;1.77;;;;;;;1.35;100.00;97287.97;6214571;28;20199;-42
2023/11/27 00:04:12;;;;;;;3.13;1.80;;;;;;;1.42;100.00;97272.25;6217233;28;20287;-42
2023/11/27 00:07:14;;;;;;;2.90;2.10;;;;;;;1.44;100.00;97267.63;6203024;28;20242;-43
2023/11/27 00:10:16;;;;;;;2.43;1.50;;;;;;;1.47;100.00;97265.41;6218082;28;20197;-43
2023/11/27 00:13:19;;;;;;;3.77;1.90;;;;;;;1.42;100.00;97264.38;6219835;28;20196;-45
2023/11/27 00:16:21;;;;;;;4.17;2.07;;;;;;;1.40;100.00;97256.69;6221132;28;20649;-42
2023/11/27 00:19:23;;;;;;;3.07;1.93;;;;;;;1.59;100.00;97242.06;6217755;28;20200;-41
2023/11/27 00:22:25;;;;;;;2.73;1.60;;;;;;;1.58;100.00;97261.44;6221577;28;20200;-42
2023/11/27 00:25:27;;;;;;;4.40;2.07;;;;;;;1.84;99.75;97242.34;6221070;28;20200;-43
2023/11/27 00:28:29;;;;;;;3.17;2.10;;;;;;;1.68;97.05;97192.81;6219222;28;20220;-42
2023/11/27 00:31:32;;;;;;;3.03;2.20;;;;;;;2.05;96.47;97257.16;6202982;28;20744;-44
2023/11/27 00:34:34;;;;;;;2.23;1.80;;;;;;;1.99;98.62;97257.94;6221278;28;20193;-45
2023/11/27 00:37:36;;;;;;;2.40;2.03;;;;;;;1.94;96.95;97261.16;6203566;28;20256;-43
2023/11/27 00:40:39;;;;;;;2.80;1.90;;;;;;;1.92;95.37;97230.84;6219856;28;20295;-44
2023/11/27 00:43:41;;;;;;;6.00;1.80;;;;;;;2.08;96.21;97259.41;6220938;28;20210;-44
2023/11/27 00:46:44;;;;;;;3.10;2.10;;;;;;;1.99;95.82;97223.81;6218489;28;20200;-42
2023/11/27 00:49:46;;;;;;;3.17;1.80;;;;;;;1.99;97.04;97256.13;6220966;28;20683;-43
2023/11/27 00:52:49;;;;;;;3.33;2.00;;;;;;;1.99;96.67;97258.75;6219806;28;20193;-43
2023/11/27 00:55:51;;;;;;;3.83;1.90;;;;;;;2.23;94.09;97246.09;6220252;28;20197;-46
2023/11/27 00:58:53;;;;;;;3.27;1.77;;;;;;;1.98;97.04;97246.63;6202479;28;20248;-41
2023/11/27 01:01:55;;;;;;;2.43;1.70;;;;;;;1.94;96.52;97244.59;6219140;28;20292;-41
2023/11/27 01:04:58;;;;;;;3.23;2.37;;;;;;;2.14;94.13;97250.72;6219488;28;20200;-46
2023/11/27 01:08:00;;;;;;;2.23;2.03;;;;;;;2.16;94.47;97242.63;6201812;28;20196;-45
2023/11/27 01:11:02;;;;;;;2.73;1.70;;;;;;;1.97;96.43;97252.91;6219640;28;20202;-44
2023/11/27 01:14:04;;;;;;;2.90;1.87;;;;;;;1.96;96.01;97243.38;6201441;28;20209;-41
2023/11/27 01:17:06;;;;;;;3.23;2.07;;;;;;;1.90;98.38;97259.13;6201910;28;20686;-40
2023/11/27 01:20:10;;;;;;;3.93;2.40;;;;;;;2.01;95.71;97242.78;6220357;28;20195;-41
2023/11/27 01:23:12;;;;;;;3.20;1.80;;;;;;;2.08;95.43;97243.63;6218743;28;20286;-41
2023/11/27 01:26:14;;;;;;;2.47;1.77;;;;;;;2.06;96.70;97230.69;6201680;28;20216;-42
2023/11/27 01:29:16;;;;;;;2.60;1.90;;;;;;;2.10;94.07;97228.47;6199252;28;20292;-41
2023/11/27 01:32:18;;;;;;;2.80;2.03;;;;;;;2.13;94.02;97232.53;6217103;28;20659;-40
2023/11/27 01:35:20;;;;;;;2.30;2.00;;;;;;;2.27;93.34;97227.09;6218702;28;20196;-43
2023/11/27 01:38:23;;;;;;;2.13;1.93;;;;;;;1.98;95.45;97207.22;6219885;28;20206;-42
2023/11/27 01:41:25;;;;;;;2.93;1.87;;;;;;;2.00;96.93;97230.66;6219804;28;20227;-41
2023/11/27 01:44:27;;;;;;;2.27;1.80;;;;;;;2.02;95.91;97242.63;6201944;28;20206;-42
2023/11/27 01:47:29;;;;;;;2.97;2.10;;;;;;;2.15;93.90;97218.16;6218132;28;20209;-41
2023/11/27 01:50:33;;;;;;;2.60;2.10;;;;;;;2.30;93.45;97213.53;6186214;28;20340;-42
2023/11/27 01:53:36;;;;;;;2.93;1.90;;;;;;;2.24;93.70;97226.69;6218178;28;20205;-43
2023/11/27 01:56:43;;;;;;;3.40;2.20;;;;;;;2.49;92.25;97219.81;6200900;28;20201;-41
2023/11/27 01:59:47;;;;;;;2.90;1.83;;;;;;;2.49;91.58;97222.47;6218619;28;20205;-42
2023/11/27 02:02:50;;;;;;;4.30;1.80;;;;;;;2.37;93.07;97224.06;6201873;28;20247;-42
2023/11/27 02:05:52;;;;;;;2.60;2.03;;;;;;;2.23;94.98;97219.81;6201133;28;20683;-41
2023/11/27 02:08:56;;;;;;;2.83;2.00;;;;;;;2.19;93.98;97215.97;6219555;28;20232;-41
2023/11/27 02:11:58;;;;;;;3.33;2.23;;;;;;;2.13;95.17;97211.50;6219492;28;20197;-41
2023/11/27 02:15:00;;;;;;;2.63;2.17;;;;;;;2.07;96.61;97210.50;6220198;28;20186;-41
2023/11/27 02:18:03;;;;;;;2.87;2.40;;;;;;;1.86;97.73;97192.25;6200878;28;21100;-42
2023/11/27 02:21:06;;;;;;;3.00;2.57;;;;;;;1.80;98.57;97185.97;6217252;28;20204;-41
2023/11/27 02:24:09;;;;;;;2.57;2.37;;;;;;;1.98;98.22;97212.50;6220035;28;20199;-42
2023/11/27 02:27:11;;;;;;;3.60;2.50;;;;;;;1.97;99.28;97212.66;6201176;28;20193;-40
2023/11/27 02:30:13;;;;;;;3.20;2.40;;;;;;;1.99;99.54;97193.09;6198619;28;20197;-42
2023/11/27 02:33:16;;;;;;;2.60;2.40;;;;;;;2.11;97.02;97206.44;6201190;28;20246;-41
2023/11/27 02:36:20;;;;;;;2.50;2.30;;;;;;;2.09;97.52;97212.91;6194286;28;21024;-40
2023/11/27 02:39:23;;;;;;;3.60;2.30;;;;;;;2.18;96.01;97204.66;6176221;28;20207;-42
2023/11/27 02:42:26;;;;;;;2.40;2.00;;;;;;;2.45;94.29;97199.41;6193348;28;20202;-43
2023/11/27 02:45:28;;;;;;;2.10;1.90;;;;;;;2.23;97.04;97201.41;6194458;28;20216;-42
2023/11/27 02:48:31;;;;;;;2.40;2.20;;;;;;;2.13;95.31;97172.09;6186249;28;20333;-42
2023/11/27 02:51:40;;;;;;;2.03;1.83;;;;;;;1.99;97.38;97166.00;6194263;28;20204;-43
2023/11/27 02:54:43;;;;;;;2.77;1.93;;;;;;;2.15;96.25;97184.00;6191884;28;20207;-43
2023/11/27 02:57:49;;;;;;;3.10;2.43;;;;;;;2.19;95.95;97173.91;6194342;28;20217;-42
2023/11/27 03:00:51;;;;;;;3.93;2.50;;;;;;;2.37;94.38;97175.97;6190963;28;20284;-42
2023/11/27 03:03:53;;;;;;;3.43;2.47;;;;;;;2.29;95.70;97176.97;6193900;28;20288;-40
2023/11/27 03:06:56;;;;;;;3.93;2.40;;;;;;;2.23;95.94;97175.13;6194023;28;20218;-41
2023/11/27 03:09:58;;;;;;;2.97;2.40;;;;;;;2.22;95.19;97179.59;6194108;28;20496;-41
2023/11/27 03:13:01;;;;;;;2.17;1.83;;;;;;;2.53;93.29;97181.59;6193717;28;20220;-41
2023/11/27 03:16:04;;;;;;;2.43;2.03;;;;;;;2.63;92.27;97175.13;6193671;28;20734;-41
2023/11/27 03:19:06;;;;;;;2.70;2.37;;;;;;;2.41;92.21;97153.50;6194746;28;20275;-40
2023/11/27 03:22:08;;;;;;;2.70;2.00;;;;;;;2.35;93.97;97175.34;6193786;28;20689;-42
2023/11/27 03:25:10;;;;;;;2.93;1.93;;;;;;;2.29;95.93;97175.13;6193865;28;20277;-42
2023/11/27 03:28:14;;;;;;;3.33;1.93;;;;;;;2.36;94.18;97169.06;6191530;28;20214;-43
2023/11/27 03:31:16;;;;;;;2.70;2.47;;;;;;;2.24;96.00;97166.25;6193585;28;20277;-41
2023/11/27 03:34:18;;;;;;;3.57;2.50;;;;;;;2.34;94.16;97177.16;6214485;28;20306;-42
2023/11/27 03:37:20;;;;;;;2.80;2.10;;;;;;;2.34;94.16;97171.91;6217669;28;20215;-39
2023/11/27 03:40:22;;;;;;;2.70;2.30;;;;;;;2.30;94.77;97162.78;6218272;28;20204;-41
2023/11/27 03:43:25;;;;;;;2.73;2.00;;;;;;;2.29;94.85;97169.06;6216945;28;20196;-40
2023/11/27 03:46:27;;;;;;;2.40;2.07;;;;;;;2.37;93.71;97165.44;6217652;28;20199;-43
2023/11/27 03:49:29;;;;;;;1.97;1.50;;;;;;;2.29;94.69;97155.94;6217686;28;20578;-42
2023/11/27 03:52:33;;;;;;;1.97;1.60;;;;;;;2.13;97.01;97158.97;6217801;28;20622;-43
2023/11/27 03:55:35;;;;;;;3.13;1.73;;;;;;;2.10;97.13;97154.09;6216559;28;20194;-40
2023/11/27 03:58:38;;;;;;;3.17;1.70;;;;;;;2.17;97.88;97171.50;6216049;28;20223;-40
2023/11/27 04:01:40;;;;;;;2.63;1.80;;;;;;;2.34;93.74;97171.91;6216546;28;20201;-40
2023/11/27 04:04:42;;;;;;;2.83;1.53;;;;;;;2.22;97.17;97168.28;6218037;28;20259;-40
2023/11/27 04:07:45;;;;;;;2.80;1.90;;;;;;;2.13;96.82;97158.97;6215759;28;20625;-40
2023/11/27 04:10:47;;;;;;;2.00;1.33;;;;;;;2.16;97.39;97167.22;6217227;28;20212;-41
2023/11/27 04:13:49;;;;;;;1.90;1.60;;;;;;;2.30;95.07;97168.06;6217710;28;20767;-45
2023/11/27 04:16:52;;;;;;;2.60;1.20;;;;;;;2.65;93.01;97168.66;6217169;28;20799;-42
2023/11/27 04:19:54;;;;;;;2.53;1.53;;;;;;;2.40;94.37;97165.03;6214030;28;20208;-42
2023/11/27 04:22:56;;;;;;;3.10;1.23;;;;;;;2.53;94.02;97171.09;6215729;28;20288;-40
2023/11/27 04:25:58;;;;;;;2.03;1.40;;;;;;;2.32;96.91;97169.50;6217597;28;20206;-41
2023/11/27 04:29:01;;;;;;;1.50;1.30;;;;;;;2.27;97.35;97161.41;6215677;28;20228;-40
2023/11/27 04:32:03;;;;;;;2.10;1.20;;;;;;;2.29;100.00;97176.97;6216594;28;20233;-42
2023/11/27 04:35:06;;;;;;;1.87;1.07;;;;;;;2.36;97.86;97161.97;6216651;28;20582;-40
2023/11/27 04:38:08;;;;;;;1.43;1.20;;;;;;;2.24;99.49;97163.63;6217012;28;20336;-40
2023/11/27 04:41:12;;;;;;;1.10;1.00;;;;;;;2.19;99.58;97164.22;6217155;28;20200;-40
2023/11/27 04:44:15;;;;;;;2.70;1.37;;;;;;;2.17;99.64;97160.16;6216787;28;20198;-39
2023/11/27 04:47:18;;;;;;;1.97;1.23;;;;;;;2.29;100.00;97151.47;6217058;28;20198;-43
2023/11/27 04:50:21;;;;;;;1.40;1.10;;;;;;;2.30;97.76;97163.59;6216955;28;20186;-43
2023/11/27 04:53:23;;;;;;;1.30;1.07;;;;;;;2.21;100.00;97159.56;6217121;28;20624;-43
2023/11/27 04:56:25;;;;;;;2.73;1.27;;;;;;;2.14;100.00;97161.38;6216693;28;20611;-42
2023/11/27 04:59:28;;;;;;;1.30;1.00;;;;;;;2.18;100.00;97157.34;6219817;28;20215;-42
2023/11/27 05:02:30;;;;;;;1.40;1.30;;;;;;;2.02;100.00;97153.28;6220837;28;20189;-39
2023/11/27 05:05:32;;;;;;;2.63;1.13;;;;;;;1.98;100.00;97154.69;6220839;28;20193;-44
2023/11/27 05:08:35;;;;;;;1.37;1.23;;;;;;;1.88;100.00;97162.16;6219172;28;20223;-44
2023/11/27 05:11:37;;;;;;;1.23;1.13;;;;;;;1.65;100.00;97133.63;6219894;28;20203;-41
2023/11/27 05:14:39;;;;;;;2.40;1.40;;;;;;;1.74;100.00;97155.25;6220962;28;20206;-42
2023/11/27 05:17:41;;;;;;;1.87;1.57;;;;;;;1.68;100.00;97156.88;6220688;28;20202;-42
2023/11/27 05:20:43;;;;;;;1.87;1.50;;;;;;;1.67;100.00;97163.09;6218320;28;20620;-41
2023/11/27 05:23:45;;;;;;;1.97;1.60;;;;;;;1.62;100.00;97167.31;6220913;28;20195;-42
2023/11/27 05:26:47;;;;;;;2.43;1.50;;;;;;;1.77;100.00;97160.94;6219491;28;20206;-42
2023/11/27 05:29:49;;;;;;;1.87;1.67;;;;;;;1.78;100.00;97170.41;6219056;28;20205;-42
2023/11/27 05:32:52;;;;;;;2.00;1.53;;;;;;;1.64;100.00;97170.59;6217890;28;20249;-41
2023/11/27 05:35:54;;;;;;;3.23;1.50;;;;;;;1.36;100.00;97144.44;6220491;28;20286;-42
2023/11/27 05:38:56;;;;;;;1.87;1.50;;;;;;;1.36;100.00;97152.31;6218334;28;20266;-41
2023/11/27 05:42:02;;;;;;;2.37;1.70;;;;;;;1.37;100.00;97165.22;6220426;28;20199;-41
2023/11/27 05:45:04;;;;;;;2.70;1.60;;;;;;;1.29;100.00;97166.22;6219401;28;20581;-41
2023/11/27 05:48:08;;;;;;;2.10;1.53;;;;;;;1.33;100.00;97153.53;6220061;28;20852;-41
2023/11/27 05:51:10;;;;;;;2.27;1.73;;;;;;;1.28;100.00;97158.53;6220155;28;20193;-41
2023/11/27 05:54:12;;;;;;;2.00;1.60;;;;;;;1.24;100.00;97157.31;6218921;28;20676;-41
2023/11/27 05:57:14;;;;;;;2.70;2.00;;;;;;;0.95;100.00;97108.56;6219575;28;20205;-41
2023/11/27 06:00:17;;;;;;;1.33;1.23;;;;;;;1.23;100.00;97156.50;6218805;28;20591;-41
2023/11/27 06:03:19;;;;;;;1.87;1.63;;;;;;;1.24;100.00;97147.63;6220941;28;20419;-41
2023/11/27 06:06:21;;;;;;;3.00;1.30;;;;;;;1.24;100.00;97155.50;6220498;28;20280;-41
2023/11/27 06:09:24;;;;;;;1.20;0.90;;;;;;;1.35;100.00;97162.00;6219660;28;20198;-43
2023/11/27 06:12:26;;;;;;;1.60;1.40;;;;;;;1.39;100.00;97157.19;6219902;28;20864;-41
2023/11/27 06:15:28;;;;;;;1.63;1.13;;;;;;;1.44;100.00;97160.03;6219968;28;20203;-41
2023/11/27 06:18:30;;;;;;;1.30;1.13;;;;;;;1.60;100.00;97164.09;6218802;28;20627;-41
2023/11/27 06:21:33;;;;;;;1.20;0.90;;;;;;;1.40;100.00;97156.16;6221447;28;20230;-41
2023/11/27 06:24:35;;;;;;;1.40;1.07;;;;;;;1.39;100.00;97159.81;6215764;28;20230;-42
2023/11/27 06:27:37;;;;;;;2.60;0.90;;;;;;;1.38;100.00;97147.66;6219820;28;20211;-41
2023/11/27 06:30:40;;;;;;;1.10;0.97;;;;;;;1.34;100.00;97149.88;6217383;28;20189;-41
2023/11/27 06:33:42;;;;;;;1.10;1.00;;;;;;;1.32;100.00;97151.06;6218780;28;20245;-42
2023/11/27 06:36:44;;;;;;;1.37;1.10;;;;;;;1.31;100.00;97160.75;6219770;28;20294;-42
2023/11/27 06:39:46;;;;;;;1.20;1.10;;;;;;;1.07;100.00;97135.84;6218960;28;20239;-41
2023/11/27 06:42:49;;;;;;;0.80;0.73;;;;;;;1.16;100.00;97158.28;6218931;28;20193;-40
2023/11/27 06:45:52;;;;;;;1.57;0.83;;;;;;;1.20;100.00;97154.25;6217716;28;20210;-41
2023/11/27 06:48:54;;;;;;;1.10;1.00;;;;;;;1.18;100.00;97156.28;6218352;28;20692;-41
2023/11/27 06:51:56;;;;;;;1.13;0.90;;;;;;;1.18;100.00;97158.91;6218604;28;20864;-41
2023/11/27 06:54:59;;;;;;;1.23;1.00;;;;;;;1.29;100.00;97162.78;6221018;28;20565;-40
2023/11/27 06:58:01;;;;;;;1.00;0.90;;;;;;;1.28;100.00;97150.66;6218510;28;20565;-41
2023/11/27 07:01:10;;;;;;;1.00;0.87;;;;;;;1.46;100.00;97164.06;6216407;28;20272;-41
2023/11/27 07:04:13;;;;;;;1.60;1.10;;;;;;;1.43;100.00;97163.63;6218834;28;20191;-41
2023/11/27 07:07:15;;;;;;;1.00;0.87;;;;;;;1.55;100.00;97152.38;6218556;28;20201;-41
2023/11/27 07:10:17;;;;;;;1.27;0.63;;;;;;;1.49;100.00;97147.13;6218574;28;20200;-42
2023/11/27 07:13:19;;;;;;;0.60;0.60;;;;;;;1.56;100.00;97145.31;6216981;28;20201;-41
2023/11/27 07:16:22;;;;;;;1.23;1.00;;;;;;;1.55;100.00;97141.06;6218299;28;20254;-41
2023/11/27 07:19:25;;;;;;;1.23;0.90;;;;;;;1.53;100.00;97143.09;6217590;28;20208;-41
2023/11/27 07:22:27;;;;;;;0.70;0.70;;;;;;;1.47;100.00;97146.50;6216486;28;20400;-41
2023/11/27 07:25:29;;;;;;;0.63;0.63;;;;;;;1.61;100.00;97135.03;6216264;28;20204;-42
2023/11/27 07:28:31;;;;;;;0.90;0.60;;;;;;;1.60;100.00;97129.97;6218038;28;20843;-42
2023/11/27 07:31:33;;;;;;;0.70;0.70;;;;;;;1.58;100.00;97132.81;6217241;28;20498;-41
2023/11/27 07:34:36;;;;;;;0.53;0.50;;;;;;;1.64;100.00;97137.25;6216802;28;20291;-42
2023/11/27 07:37:39;;;;;;;0.57;0.57;;;;;;;1.54;100.00;97092.22;6217279;28;20678;-41
2023/11/27 07:40:42;;;;;;;2.50;0.63;;;;;;;1.84;100.00;97121.53;6216080;28;20651;-41
2023/11/27 07:43:45;;;;;;;0.70;0.70;;;;;;;1.83;100.00;97132.25;6217707;28;20207;-42
2023/11/27 07:46:47;;;;;;;0.70;0.57;;;;;;;1.76;100.00;97127.78;6219198;28;20763;-41
2023/11/27 07:49:49;;;;;;;0.50;0.50;;;;;;;1.89;100.00;97128.81;6217032;28;20631;-42
2023/11/27 07:52:51;;;;;;;0.53;0.53;;;;;;;1.89;100.00;97128.81;6217490;28;20207;-41
2023/11/27 07:55:53;;;;;;;0.73;0.50;;;;;;;1.75;100.00;97135.88;6217207;28;20673;-41
2023/11/27 07:58:56;;;;;;;0.77;0.40;;;;;;;1.76;100.00;97121.72;6217579;28;20317;-42
2023/11/27 08:02:00;;;;;;;0.50;0.50;;;;;;;1.73;100.00;97127.38;6217383;28;20197;-41
2023/11/27 08:05:06;;;;;;;0.50;0.40;;;;;;;1.76;100.00;97126.97;6217955;28;20196;-43
2023/11/27 08:08:10;;;;;;;2.10;0.50;;;;;;;1.79;100.00;97126.59;6216143;28;20194;-41
2023/11/27 08:11:13;;;;;;;0.43;0.43;;;;;;;1.78;100.00;97124.97;6215226;28;20862;-42
2023/11/27 08:14:16;;;;;;;0.33;0.33;;;;;;;1.84;100.00;97120.75;6217265;28;20215;-40
2023/11/27 08:17:19;;;;;;;0.43;0.40;;;;;;;1.98;100.00;97119.75;6217091;28;20849;-42
2023/11/27 08:20:27;;;;;;;0.67;0.23;;;;;;;1.70;100.00;97085.78;6219102;28;20199;-42
2023/11/27 08:23:34;;;;;;;0.20;0.20;;;;;;;1.95;100.00;97128.00;6216024;28;20227;-43
2023/11/27 08:26:42;;;;;;;0.50;0.50;;;;;;;1.89;100.00;97126.19;6217358;28;20198;-42
2023/11/27 08:29:45;;;;;;;0.33;0.30;;;;;;;1.85;100.00;97127.59;6213879;28;20194;-41
2023/11/27 08:32:47;;;;;;;0.53;0.40;;;;;;;1.80;100.00;97115.88;6221611;28;20608;-41
2023/11/27 08:35:49;;;;;;;2.13;0.50;;;;;;;1.91;100.00;97124.16;6221544;28;20197;-42
2023/11/27 08:39:00;;;;;;;1.53;0.97;;;;;;;1.98;100.00;97117.13;6221954;28;20260;-42
2023/11/27 08:42:05;;;;;;;1.67;0.60;;;;;;;2.05;100.00;97117.91;6220499;28;20192;-42
2023/11/27 08:45:19;;;;;;;0.60;0.43;;;;;;;2.00;100.00;97118.53;6221731;28;20197;-43
2023/11/27 08:48:21;;;;;;;0.30;0.30;;;;;;;2.10;100.00;97118.13;6220114;28;20698;-41
2023/11/27 08:51:25;;;;;;;0.30;0.30;;;;;;;2.08;100.00;97120.16;6221433;28;20282;-42
2023/11/27 08:54:32;;;;;;;1.70;0.40;;;;;;;2.37;100.00;97115.50;6221764;28;20189;-42
2023/11/27 08:57:35;;;;;;;0.60;0.50;;;;;;;2.36;100.00;97113.88;6223143;28;20199;-42
2023/11/27 09:00:38;;;;;;;1.80;0.53;;;;;;;2.29;100.00;97109.44;6222006;28;20344;-43
2023/11/27 09:03:42;;;;;;;0.30;0.30;;;;;;;2.31;100.00;97110.03;6221452;28;20663;-43
2023/11/27 09:06:45;;;;;;;1.23;0.37;;;;;;;2.30;100.00;97087.38;6220570;28;20197;-42
2023/11/27 09:09:48;;;;;;;0.40;0.40;;;;;;;2.26;100.00;97077.47;6220982;28;20196;-43
2023/11/27 09:12:50;;;;;;;0.70;0.30;;;;;;;2.47;100.00;97092.25;6220855;28;20202;-42
2023/11/27 09:15:53;;;;;;;0.30;0.30;;;;;;;2.59;100.00;97082.69;6221174;28;20934;-42
2023/11/27 09:18:55;;;;;;;1.27;0.30;;;;;;;2.52;100.00;97082.72;6221463;28;20224;-44
2023/11/27 09:21:59;;;;;;;0.83;0.30;;;;;;;2.50;100.00;97076.03;6221722;28;20546;-42
2023/11/27 09:25:02;;;;;;;0.30;0.30;;;;;;;2.45;100.00;97066.13;6221411;28;20197;-42
2023/11/27 09:28:04;;;;;;;0.30;0.30;;;;;;;2.56;100.00;97067.31;6220678;28;20202;-43
2023/11/27 09:31:07;;;;;;;0.53;0.20;;;;;;;2.59;100.00;97061.66;6221997;28;20678;-42
2023/11/27 09:34:09;;;;;;;0.30;0.20;;;;;;;2.59;100.00;97054.59;6219549;28;20231;-42
2023/11/27 09:37:11;;;;;;;1.07;0.40;;;;;;;2.59;100.00;97046.69;6219966;28;20571;-42
2023/11/27 09:40:15;;;;;;;0.40;0.40;;;;;;;2.56;100.00;97039.25;6219955;28;20200;-43
2023/11/27 09:43:19;;;;;;;1.63;0.30;;;;;;;2.59;100.00;97044.06;6219476;28;20202;-42
2023/11/27 09:46:24;;;;;;;0.47;0.40;;;;;;;2.69;100.00;97041.00;6221246;28;20204;-42
2023/11/27 09:49:28;;;;;;;1.50;0.30;;;;;;;2.78;100.00;97039.75;6219611;28;20212;-41
2023/11/27 09:52:46;;;;;;;0.60;0.30;;;;;;;2.87;100.00;97029.03;6219573;28;20205;-43
2023/11/27 09:55:52;;;;;;;1.80;0.40;;;;;;;2.89;100.00;97019.09;6219036;28;20660;-42
2023/11/27 09:58:59;;;;;;;0.40;0.30;;;;;;;2.91;100.00;97012.63;6218231;28;20587;-42
2023/11/27 10:02:03;;;;;;;0.50;0.50;;;;;;;2.95;100.00;97015.59;6219829;28;20212;-42
2023/11/27 10:05:08;;;;;;;0.30;0.30;;;;;;;3.00;100.00;96992.09;6220958;28;20240;-42
2023/11/27 10:08:11;;;;;;;0.50;0.27;;;;;;;3.04;100.00;96995.94;6220129;28;20251;-42
2023/11/27 10:11:14;;;;;;;0.33;0.33;;;;;;;3.13;100.00;96981.53;6219148;28;20241;-42
2023/11/27 10:14:20;;;;;;;0.70;0.40;;;;;;;3.15;95.67;96978.66;6218099;28;20729;-41
2023/11/27 10:17:41;;;;;;;1.07;0.30;;;;;;;3.04;100.00;96953.84;6217812;28;20189;-41
2023/11/27 10:20:43;;;;;;;0.63;0.40;;;;;;;3.19;98.76;96959.59;6217371;28;20200;-42
2023/11/27 10:23:45;;;;;;;0.30;0.30;;;;;;;3.24;92.31;96964.25;6220697;28;20204;-42
2023/11/27 10:26:47;;;;;;;0.70;0.20;;;;;;;3.31;94.07;96936.06;6219474;28;20646;-42
2023/11/27 10:29:50;;;;;;;1.50;0.30;;;;;;;3.47;89.58;96947.88;6216971;28;20199;-43
2023/11/27 10:32:52;;;;;;;0.80;0.37;;;;;;;3.45;90.03;96950.75;6216438;28;20228;-41
2023/11/27 10:35:55;;;;;;;0.30;0.30;;;;;;;3.49;94.26;96949.25;6218578;28;20270;-41
2023/11/27 10:39:18;;;;;;;0.50;0.30;;;;;;;3.42;92.65;96931.94;6219956;28;20200;-42
2023/11/27 10:42:28;;;;;;;0.47;0.30;;;;;;;3.66;94.03;96944.28;6217836;28;20572;-42
2023/11/27 10:45:33;;;;;;;1.70;0.50;;;;;;;3.76;97.18;96935.91;6217198;28;20216;-41
2023/11/27 10:48:36;;;;;;;1.17;0.30;;;;;;;3.86;89.65;96936.19;6219301;28;20704;-43
2023/11/27 10:51:47;;;;;;;0.60;0.40;;;;;;;3.99;94.03;96929.97;6215981;28;20611;-42
2023/11/27 10:54:51;;;;;;;0.57;0.33;;;;;;;4.08;86.95;96920.78;6218327;28;20207;-42
2023/11/27 10:57:55;;;;;;;1.67;0.43;;;;;;;4.21;88.96;96915.38;6217273;28;20940;-42
2023/11/27 11:00:58;;;;;;;0.40;0.37;;;;;;;4.46;88.68;96911.84;6216609;28;20219;-41
2023/11/27 11:04:09;;;;;;;1.00;0.50;;;;;;;4.56;89.66;96905.00;6218665;28;20188;-41
2023/11/27 11:07:19;;;;;;;2.50;0.40;;;;;;;4.61;86.45;96904.34;6217880;28;20231;-42
2023/11/27 11:10:31;;;;;;;0.90;0.30;;;;;;;4.60;77.07;96895.63;6215634;28;20189;-42
2023/11/27 11:13:34;;;;;;;0.43;0.40;;;;;;;4.61;83.75;96884.03;6217924;28;20193;-41
2023/11/27 11:16:50;;;;;;;0.57;0.30;;;;;;;4.49;76.53;96867.38;6217740;28;20282;-42
2023/11/27 11:20:13;;;;;;;0.50;0.30;;;;;;;4.64;77.89;96898.63;6214519;28;20259;-42
2023/11/27 11:23:43;;;;;;;0.20;0.20;;;;;;;4.70;79.55;96891.66;6217363;28;20676;-42
2023/11/27 11:26:48;;;;;;;0.47;0.30;;;;;;;4.79;79.19;96885.03;6215058;28;20668;-41
2023/11/27 11:29:51;;;;;;;0.40;0.30;;;;;;;4.89;79.27;96886.09;6216102;28;20672;-42
2023/11/27 11:32:53;;;;;;;1.20;0.30;;;;;;;4.97;76.82;96881.50;6216205;28;20228;-41
2023/11/27 11:35:55;;;;;;;0.73;0.30;;;;;;;4.80;72.75;96857.63;6217633;28;20259;-41
2023/11/27 11:38:59;;;;;;;0.77;0.30;;;;;;;4.90;73.67;96878.97;6217626;28;20216;-42
2023/11/27 11:42:03;;;;;;;0.27;0.27;;;;;;;4.40;74.55;96793.03;6217327;28;20189;-44
2023/11/27 11:45:25;;;;;;;0.30;0.20;;;;;;;4.89;74.95;96867.63;6216545;28;20197;-42
2023/11/27 11:48:37;;;;;;;0.20;0.20;;;;;;;4.88;75.34;96860.75;6215222;28;20367;-41
2023/11/27 11:52:06;;;;;;;0.23;0.23;;;;;;;4.85;76.56;96848.00;6216916;28;20185;-41
2023/11/27 11:55:21;;;;;;;1.20;0.20;;;;;;;4.96;78.13;96856.16;6217033;28;20224;-42
2023/11/27 11:58:23;;;;;;;0.27;0.20;;;;;;;5.00;77.70;96844.94;6215542;28;20256;-42
2023/11/27 12:01:27;;;;;;;0.57;0.30;;;;;;;5.00;73.48;96842.28;6217262;28;20580;-41
2023/11/27 12:04:29;;;;;;;0.20;0.20;;;;;;;4.99;70.05;96832.75;6217677;28;20267;-42
2023/11/27 12:07:31;;;;;;;0.20;0.20;;;;;;;5.04;72.16;96834.72;6221263;28;20199;-42
2023/11/27 12:10:38;;;;;;;0.30;0.30;;;;;;;5.10;73.99;96839.09;6219837;28;20201;-42
2023/11/27 12:13:43;;;;;;;0.67;0.30;;;;;;;5.13;73.13;96836.00;6221489;28;20197;-42
2023/11/27 12:16:47;;;;;;;0.77;0.30;;;;;;;5.16;71.81;96838.97;6221728;28;20835;-42
2023/11/27 12:19:50;;;;;;;0.20;0.20;;;;;;;5.21;73.67;96829.56;6221149;28;20213;-42
2023/11/27 12:22:52;;;;;;;0.20;0.20;;;;;;;5.25;74.42;96836.81;6223777;28;20214;-43
2023/11/27 12:25:54;;;;;;;0.90;0.20;;;;;;;5.29;75.22;96829.25;6222088;28;20208;-44
2023/11/27 12:28:56;;;;;;;0.83;0.30;;;;;;;5.29;74.45;96823.97;6220483;28;20741;-42
2023/11/27 12:31:58;;;;;;;0.40;0.30;;;;;;;5.27;71.09;96811.00;6220656;28;20240;-42
2023/11/27 12:35:09;;;;;;;0.73;0.40;;;;;;;5.26;71.80;96814.66;6221384;28;20695;-42
2023/11/27 12:38:16;;;;;;;0.20;0.20;;;;;;;5.22;71.87;96800.31;6220869;28;20574;-42
2023/11/27 12:41:29;;;;;;;0.53;0.40;;;;;;;5.32;74.82;96815.56;6221043;28;20204;-42
2023/11/27 12:44:36;;;;;;;0.30;0.30;;;;;;;5.26;73.26;96804.09;6221238;28;20889;-44
2023/11/27 12:47:39;;;;;;;0.70;0.40;;;;;;;5.16;75.11;96786.16;6221492;28;20656;-42
2023/11/27 12:50:41;;;;;;;0.90;0.57;;;;;;;5.38;73.67;96802.25;6220275;28;20198;-42
2023/11/27 12:53:47;;;;;;;0.60;0.50;;;;;;;5.41;71.89;96796.50;6221340;28;20198;-42
2023/11/27 12:56:53;;;;;;;1.30;0.50;;;;;;;5.33;72.05;96794.22;6220848;28;20261;-42
2023/11/27 12:59:55;;;;;;;0.90;0.80;;;;;;;5.36;71.68;96783.19;6219888;28;20230;-41
2023/11/27 13:03:02;;;;;;;2.63;0.63;;;;;;;5.15;71.21;96741.53;6221287;28;20216;-43
2023/11/27 13:06:04;;;;;;;1.23;0.90;;;;;;;5.40;70.26;96773.78;6221784;28;20564;-43
2023/11/27 13:09:06;;;;;;;2.00;1.00;;;;;;;5.37;67.85;96766.31;6218429;28;20706;-42
2023/11/27 13:12:16;;;;;;;1.53;1.07;;;;;;;5.34;67.59;96760.69;6220959;28;20596;-43
2023/11/27 13:15:33;;;;;;;2.03;0.70;;;;;;;5.34;68.19;96758.06;6219425;28;20294;-42
2023/11/27 13:18:35;;;;;;;2.17;0.90;;;;;;;5.36;69.05;96745.41;6216996;28;20192;-42
2023/11/27 13:21:37;;;;;;;2.10;1.00;;;;;;;5.36;69.59;96738.28;6217839;28;20205;-43
2023/11/27 13:24:39;;;;;;;1.00;0.70;;;;;;;5.33;70.12;96728.22;6220307;28;20286;-41
2023/11/27 13:27:46;;;;;;;0.70;0.60;;;;;;;5.31;71.31;96732.09;6219569;28;20207;-43
2023/11/27 13:30:55;;;;;;;2.13;0.90;;;;;;;5.18;71.70;96712.84;6220446;28;20647;-41
2023/11/27 13:33:57;;;;;;;2.07;0.73;;;;;;;5.22;72.57;96720.28;6219700;28;20270;-42
2023/11/27 13:36:59;;;;;;;1.20;0.50;;;;;;;5.18;73.01;96723.41;6220729;28;20214;-42
2023/11/27 13:40:03;;;;;;;0.90;0.67;;;;;;;5.17;73.71;96719.16;6220307;28;20216;-42
2023/11/27 13:43:13;;;;;;;0.80;0.50;;;;;;;5.15;75.45;96723.06;6218227;28;20196;-41
2023/11/27 13:46:15;;;;;;;1.23;0.60;;;;;;;5.13;76.92;96715.38;6218237;28;20208;-41
2023/11/27 13:49:19;;;;;;;1.17;0.60;;;;;;;5.10;78.63;96709.75;6220907;28;20207;-43
2023/11/27 13:52:42;;;;;;;1.33;0.53;;;;;;;4.98;81.34;96698.41;6220285;28;20202;-42
2023/11/27 13:55:49;;;;;;;1.50;0.50;;;;;;;5.03;82.23;96706.44;6218611;28;20198;-41
2023/11/27 13:58:52;;;;;;;0.97;0.50;;;;;;;4.96;84.44;96689.88;6219291;28;20232;-41
2023/11/27 14:01:55;;;;;;;1.60;0.70;;;;;;;4.92;85.73;96692.97;6219786;28;20685;-42
2023/11/27 14:05:07;;;;;;;0.50;0.50;;;;;;;4.86;88.30;96686.00;6220070;28;20327;-40
2023/11/27 14:08:39;;;;;;;2.77;0.80;;;;;;;4.74;85.97;96677.28;6218652;28;20201;-41
2023/11/27 14:11:47;;;;;;;1.57;0.67;;;;;;;4.61;89.21;96669.59;6219735;28;20321;-43
2023/11/27 14:15:05;;;;;;;2.03;0.50;;;;;;;4.44;90.81;96664.19;6218978;28;20572;-42
2023/11/27 14:24:57;;;;;;;2.57;0.70;;;;;;;3.69;98.27;96653.31;6218933;28;20689;-41
2023/11/27 14:28:19;;;;;;;1.00;0.70;;;;;;;3.39;99.40;96663.81;6217732;28;20192;-41
2023/11/27 14:31:22;;;;;;;2.67;0.80;;;;;;;3.09;99.53;96656.69;6218978;28;20194;-41
2023/11/27 14:34:27;;;;;;;4.23;1.00;;;;;;;2.83;100.00;96666.47;6218565;28;20231;-41
2023/11/27 14:37:32;;;;;;;0.80;0.80;;;;;;;2.61;100.00;96646.88;6218502;28;20189;-41
2023/11/27 14:40:35;;;;;;;1.00;0.57;;;;;;;2.35;100.00;96649.72;6220153;28;20212;-41